This is the latest recevied weather packets stored in our database for station/object K1BES. If no packets are shown the sender has not sent any weather packets the latest 10 day(s).
| Time | Temp. | Humidity | Pressure | Rain* | Wind** | Luminosity | Snow |
|---|---|---|---|---|---|---|---|
| 1788365055 | 32.78° C | 65% | 1018.2 hPa | 0 mm | - | 987 W/m² | - |
| 1788364753 | 32.78° C | 67% | 1018.3 hPa | 0 mm | - | 926 W/m² | - |
| 1788364449 | 32.22° C | 71% | 1018.2 hPa | 0 mm | - | 932 W/m² | - |
| 1788364142 | 32.22° C | 68% | 1018.1 hPa | 0 mm | - | 914 W/m² | - |
| 1788363838 | 32.22° C | 69% | 1018.2 hPa | 0 mm | - | 880 W/m² | - |
| 1788363537 | 31.67° C | 70% | 1018.3 hPa | 0 mm | - | 878 W/m² | - |
| 1788363251 | 31.67° C | 73% | 1018.4 hPa | 0 mm | - | 865 W/m² | - |
| 1788362932 | 31.67° C | 69% | 1018.4 hPa | 0 mm | - | 874 W/m² | - |
| 1788362628 | 31.11° C | 73% | 1018.4 hPa | 0 mm | - | 834 W/m² | - |
| 1788362324 | 31.11° C | 74% | 1018.4 hPa | 0 mm | - | 914 W/m² | - |
| 1788362019 | 31.11° C | 71% | 1018.5 hPa | 0 mm | - | 155 W/m² | - |
| 1788361719 | 30.56° C | 74% | 1018.4 hPa | 0 mm | - | 882 W/m² | - |
| 1788361415 | 30° C | 74% | 1018.7 hPa | 0 mm | - | 249 W/m² | - |
| 1788361114 | 30° C | 77% | 1018.5 hPa | 0 mm | - | 213 W/m² | - |
| 1788360810 | 30.56° C | 74% | 1018.7 hPa | 0 mm | - | 185 W/m² | - |
| 1788360505 | 31.11° C | 73% | 1018.6 hPa | 0 mm | - | 805 W/m² | - |
| 1788360202 | 30.56° C | 74% | 1018.5 hPa | 0 mm | - | 710 W/m² | - |
| 1788359896 | 30° C | 76% | 1018.4 hPa | 0 mm | - | 713 W/m² | - |
| 1788359591 | 31.11° C | 73% | 1018.2 hPa | 0 mm | - | 668 W/m² | - |
| 1788359287 | 30.56° C | 77% | 1018.2 hPa | 0 mm | - | 622 W/m² | - |
| 1788358982 | 30.56° C | 77% | 1018.3 hPa | 0 mm | - | 638 W/m² | - |
| 1788358682 | 31.11° C | 75% | 1018.1 hPa | 0 mm | - | 683 W/m² | - |
| 1788358378 | 30.56° C | 77% | 1018.2 hPa | 0 mm | - | 623 W/m² | - |
| 1788358078 | 30° C | 79% | 1018.4 hPa | 0 mm | - | 599 W/m² | - |
| 1788357774 | 30° C | 80% | 1018.1 hPa | 0 mm | - | 495 W/m² | - |
* Rain latest hour (hover to see other rain measurements)
** Current wind speed in m/s (hover to see current wind gust speed)